createdAt,value
2023-11-24T00:01:52.550Z,0
2023-11-24T00:06:52.599Z,0
2023-11-24T00:11:52.488Z,0
2023-11-24T00:16:52.557Z,0
2023-11-24T00:21:52.548Z,0
2023-11-24T00:26:52.481Z,0
2023-11-24T00:31:52.466Z,0
2023-11-24T00:36:52.512Z,0
2023-11-24T00:41:52.492Z,0
2023-11-24T00:46:52.501Z,0
2023-11-24T00:51:52.539Z,0
2023-11-24T00:56:52.488Z,0
2023-11-24T01:01:52.517Z,0
2023-11-24T01:06:52.496Z,0
2023-11-24T01:11:52.501Z,0
2023-11-24T01:16:52.518Z,0
2023-11-24T01:21:52.556Z,0
2023-11-24T01:26:52.508Z,0
2023-11-24T01:31:52.512Z,0
2023-11-24T01:36:52.525Z,0
2023-11-24T01:41:52.532Z,0
2023-11-24T01:46:52.556Z,0
2023-11-24T01:51:52.503Z,0
2023-11-24T01:56:52.515Z,0
2023-11-24T02:01:52.500Z,0
2023-11-24T02:06:52.544Z,0
2023-11-24T02:11:52.501Z,0
2023-11-24T02:16:52.557Z,0
2023-11-24T02:21:52.489Z,0
2023-11-24T02:26:52.526Z,0
2023-11-24T02:31:52.534Z,0
2023-11-24T02:36:52.520Z,0
2023-11-24T02:41:52.502Z,0
2023-11-24T02:46:52.567Z,0
2023-11-24T02:51:52.513Z,0
2023-11-24T02:56:52.547Z,0
2023-11-24T03:01:52.602Z,0
2023-11-24T03:06:52.552Z,0
2023-11-24T03:11:52.539Z,0
2023-11-24T03:16:52.646Z,0
2023-11-24T03:21:52.556Z,0
2023-11-24T03:26:52.517Z,0
2023-11-24T03:31:52.524Z,0
2023-11-24T03:36:52.566Z,0
2023-11-24T03:41:52.507Z,0
2023-11-24T03:46:52.522Z,0
2023-11-24T03:51:52.572Z,0
2023-11-24T03:56:52.504Z,0
2023-11-24T04:01:52.607Z,0
2023-11-24T04:06:52.558Z,0
2023-11-24T04:11:52.544Z,0
2023-11-24T04:16:52.540Z,0
2023-11-24T04:21:52.560Z,0
2023-11-24T04:26:52.492Z,0
2023-11-24T04:31:52.523Z,0
2023-11-24T04:36:52.588Z,0
2023-11-24T04:41:52.536Z,0
2023-11-24T04:46:52.524Z,0
2023-11-24T04:51:52.521Z,0
2023-11-24T04:56:52.493Z,0
2023-11-24T05:01:52.573Z,0
2023-11-24T05:06:52.576Z,0
2023-11-24T05:11:52.612Z,0
2023-11-24T05:16:52.578Z,0
2023-11-24T05:21:52.537Z,0
2023-11-24T05:26:53.518Z,0
2023-11-24T05:31:52.591Z,0
2023-11-24T05:36:52.576Z,0
2023-11-24T05:41:52.588Z,0
2023-11-24T05:46:52.590Z,0
2023-11-24T05:51:52.662Z,0
2023-11-24T05:56:52.534Z,0
2023-11-24T06:01:52.559Z,0
2023-11-24T06:06:52.591Z,0
2023-11-24T06:11:52.540Z,0
2023-11-24T06:16:52.564Z,0
2023-11-24T06:21:52.558Z,0
2023-11-24T06:26:52.555Z,0
2023-11-24T06:31:52.565Z,0
2023-11-24T06:36:52.508Z,0
2023-11-24T06:41:52.597Z,0
2023-11-24T06:46:52.620Z,0
2023-11-24T06:51:53.707Z,0
2023-11-24T06:56:52.609Z,265
2023-11-24T07:01:52.647Z,265
2023-11-24T07:06:52.524Z,265
2023-11-24T07:11:52.553Z,268
2023-11-24T07:16:52.612Z,271
2023-11-24T07:21:52.550Z,270
2023-11-24T07:26:52.535Z,270
2023-11-24T07:31:52.652Z,271
2023-11-24T07:36:52.748Z,274
2023-11-24T07:41:52.569Z,272
2023-11-24T07:46:53.758Z,276
2023-11-24T07:51:52.580Z,290
2023-11-24T07:56:52.517Z,278
2023-11-24T08:01:52.579Z,308
2023-11-24T08:06:52.567Z,300
2023-11-24T08:11:52.536Z,301
2023-11-24T08:16:52.619Z,304
2023-11-24T08:21:52.565Z,313
2023-11-24T08:26:52.559Z,316
2023-11-24T08:31:52.565Z,334
2023-11-24T08:36:52.678Z,306
2023-11-24T08:41:52.561Z,306
2023-11-24T08:46:52.570Z,312
2023-11-24T08:51:52.640Z,291
2023-11-24T08:56:52.535Z,317
2023-11-24T09:01:52.622Z,351
2023-11-24T09:06:53.893Z,341
2023-11-24T09:11:52.638Z,356
2023-11-24T09:16:52.677Z,328
2023-11-24T09:21:52.586Z,337
2023-11-24T09:26:52.562Z,342
2023-11-24T09:31:52.573Z,350
2023-11-24T09:36:52.562Z,341
2023-11-24T09:41:52.591Z,322
2023-11-24T09:46:53.720Z,359
2023-11-24T09:51:52.627Z,357
2023-11-24T09:56:52.536Z,362
2023-11-24T10:01:52.624Z,327
2023-11-24T10:06:52.600Z,313
2023-11-24T10:11:52.578Z,314
2023-11-24T10:16:52.590Z,293
2023-11-24T10:21:52.565Z,297
2023-11-24T10:26:52.538Z,299
2023-11-24T10:31:52.566Z,299
2023-11-24T10:36:53.689Z,300
2023-11-24T10:41:52.582Z,310
2023-11-24T10:46:52.587Z,366
2023-11-24T10:51:53.747Z,365
2023-11-24T10:56:52.585Z,304
2023-11-24T11:01:52.669Z,316
2023-11-24T11:06:52.548Z,300
2023-11-24T11:11:52.589Z,294
2023-11-24T11:16:52.614Z,287
2023-11-24T11:21:52.641Z,326
2023-11-24T11:26:52.636Z,318
2023-11-24T11:31:52.752Z,297
2023-11-24T11:36:52.678Z,322
2023-11-24T11:41:52.586Z,352
2023-11-24T11:46:52.659Z,300
2023-11-24T11:51:52.653Z,293
2023-11-24T11:56:52.656Z,329
2023-11-24T12:01:52.714Z,297
2023-11-24T12:06:52.666Z,289
2023-11-24T12:11:52.598Z,281
2023-11-24T12:16:52.647Z,281
2023-11-24T12:21:52.602Z,283
2023-11-24T12:26:53.908Z,300
2023-11-24T12:31:52.631Z,282
2023-11-24T12:36:52.620Z,266
2023-11-24T12:41:52.554Z,267
2023-11-24T12:46:52.598Z,0
2023-11-24T12:51:52.605Z,0
2023-11-24T12:56:52.598Z,267
2023-11-24T13:02:09.793Z,276
2023-11-24T13:06:52.601Z,269
2023-11-24T13:11:52.584Z,276
2023-11-24T13:16:52.680Z,295
2023-11-24T13:21:54.152Z,281
2023-11-24T13:26:52.626Z,278
2023-11-24T13:31:52.602Z,280
2023-11-24T13:36:52.672Z,292
2023-11-24T13:41:52.615Z,289
2023-11-24T13:46:53.961Z,286
2023-11-24T13:51:52.733Z,286
2023-11-24T13:56:52.688Z,280
2023-11-24T14:01:52.697Z,274
2023-11-24T14:06:52.677Z,273
2023-11-24T14:11:52.639Z,269
2023-11-24T14:16:52.673Z,267
2023-11-24T14:21:52.637Z,267
2023-11-24T14:26:52.634Z,266
2023-11-24T14:31:52.644Z,265
2023-11-24T14:36:52.684Z,265
2023-11-24T14:41:52.610Z,0
2023-11-24T14:46:52.819Z,266
2023-11-24T14:51:57.523Z,265
2023-11-24T14:56:52.719Z,267
2023-11-24T15:01:52.696Z,0
2023-11-24T15:06:53.654Z,0
2023-11-24T15:11:52.614Z,0
2023-11-24T15:16:52.644Z,0
2023-11-24T15:21:52.677Z,0
2023-11-24T15:26:52.643Z,0
2023-11-24T15:31:52.722Z,0
2023-11-24T15:36:52.710Z,0
2023-11-24T15:41:52.662Z,0
2023-11-24T15:46:52.644Z,0
2023-11-24T15:51:52.655Z,0
2023-11-24T15:56:52.634Z,0
2023-11-24T16:01:52.813Z,0
2023-11-24T16:06:52.706Z,0
2023-11-24T16:11:52.610Z,0
2023-11-24T16:16:52.775Z,0
2023-11-24T16:21:52.644Z,0
2023-11-24T16:26:52.640Z,0
2023-11-24T16:31:52.898Z,0
2023-11-24T16:36:52.747Z,0
2023-11-24T16:41:52.617Z,0
2023-11-24T16:46:52.654Z,0
2023-11-24T16:51:52.660Z,0
2023-11-24T16:56:52.684Z,0
2023-11-24T17:01:54.101Z,0
2023-11-24T17:06:52.695Z,0
2023-11-24T17:11:52.624Z,0
2023-11-24T17:16:52.691Z,0
2023-11-24T17:21:52.665Z,0
2023-11-24T17:26:52.627Z,0
2023-11-24T17:31:52.635Z,0
2023-11-24T17:36:52.712Z,0
2023-11-24T17:41:52.637Z,0
2023-11-24T17:46:52.678Z,0
2023-11-24T17:51:52.707Z,0
2023-11-24T17:56:52.656Z,0
2023-11-24T18:01:52.744Z,0
2023-11-24T18:06:52.722Z,0
2023-11-24T18:11:52.638Z,0
2023-11-24T18:16:52.662Z,0
2023-11-24T18:21:52.699Z,0
2023-11-24T18:26:52.652Z,0
2023-11-24T18:31:52.689Z,0
2023-11-24T18:36:52.678Z,0
2023-11-24T18:41:52.663Z,0
2023-11-24T18:46:52.673Z,0
2023-11-24T18:51:52.671Z,0
2023-11-24T18:56:52.605Z,0
2023-11-24T19:01:52.692Z,0
2023-11-24T19:06:52.643Z,0
2023-11-24T19:11:52.664Z,0
2023-11-24T19:16:52.756Z,0
2023-11-24T19:21:52.686Z,0
2023-11-24T19:26:52.675Z,0
2023-11-24T19:31:52.746Z,0
2023-11-24T19:36:52.690Z,0
2023-11-24T19:41:52.657Z,0
2023-11-24T19:46:52.712Z,0
2023-11-24T19:51:52.679Z,0
2023-11-24T19:56:52.655Z,0
2023-11-24T20:01:52.720Z,0
2023-11-24T20:06:52.682Z,0
2023-11-24T20:11:52.681Z,0
2023-11-24T20:16:52.806Z,0
2023-11-24T20:21:52.687Z,0
2023-11-24T20:26:52.677Z,0
2023-11-24T20:31:52.650Z,0
2023-11-24T20:36:52.682Z,0
2023-11-24T20:41:52.676Z,0
2023-11-24T20:46:52.732Z,0
2023-11-24T20:51:52.663Z,0
2023-11-24T20:56:52.686Z,0
2023-11-24T21:01:52.758Z,0
2023-11-24T21:06:52.685Z,0
2023-11-24T21:11:52.679Z,0
2023-11-24T21:16:54.025Z,0
2023-11-24T21:21:52.693Z,0
2023-11-24T21:26:52.657Z,0
2023-11-24T21:31:52.688Z,0
2023-11-24T21:36:52.663Z,0
2023-11-24T21:41:52.691Z,0
2023-11-24T21:46:52.725Z,0
2023-11-24T21:51:52.659Z,0
2023-11-24T21:56:52.682Z,0
2023-11-24T22:01:52.816Z,0
2023-11-24T22:06:52.684Z,0
2023-11-24T22:11:53.589Z,0
2023-11-24T22:16:53.903Z,0
2023-11-24T22:21:53.739Z,0
2023-11-24T22:26:53.699Z,0
2023-11-24T22:31:53.703Z,0
2023-11-24T22:36:53.695Z,0
2023-11-24T22:41:53.711Z,0
2023-11-24T22:46:53.722Z,0
2023-11-24T22:51:53.712Z,0
2023-11-24T22:56:53.675Z,0
2023-11-24T23:01:53.793Z,0
2023-11-24T23:06:53.718Z,0
2023-11-24T23:11:53.697Z,0
2023-11-24T23:16:53.696Z,0
2023-11-24T23:21:53.704Z,0
2023-11-24T23:26:53.669Z,0
2023-11-24T23:31:53.820Z,0
2023-11-24T23:36:53.697Z,0
2023-11-24T23:41:53.688Z,0
2023-11-24T23:46:53.728Z,0
2023-11-24T23:51:53.713Z,0
2023-11-24T23:56:53.667Z,0
